createdAt,value
2023-02-23T00:01:52.244Z,30.10
2023-02-23T00:04:18.962Z,33.38
2023-02-23T00:06:45.698Z,31.27
2023-02-23T00:09:16.822Z,32.20
2023-02-23T00:11:43.366Z,24.90
2023-02-23T00:14:09.848Z,32.53
2023-02-23T00:16:37.595Z,39.38
2023-02-23T00:19:07.945Z,38.58
2023-02-23T00:21:35.327Z,32.45
2023-02-23T00:24:08.898Z,33.33
2023-02-23T00:26:37.542Z,28.92
2023-02-23T00:29:11.139Z,25.48
2023-02-23T00:31:38.740Z,32.38
2023-02-23T00:34:06.163Z,32.28
2023-02-23T00:36:34.643Z,31.00
2023-02-23T00:39:18.181Z,32.05
2023-02-23T00:41:46.531Z,37.38
2023-02-23T00:44:15.397Z,31.10
2023-02-23T00:46:43.679Z,31.30
2023-02-23T00:49:12.463Z,34.58
2023-02-23T00:51:39.447Z,35.30
2023-02-23T00:54:06.992Z,29.52
2023-02-23T00:56:34.163Z,32.03
2023-02-23T00:59:00.665Z,37.45
2023-02-23T01:01:27.562Z,32.00
2023-02-23T01:03:54.220Z,29.17
2023-02-23T01:06:21.301Z,30.50
2023-02-23T01:08:49.835Z,33.35
2023-02-23T01:11:21.202Z,40.78
2023-02-23T01:13:49.308Z,36.35
2023-02-23T01:16:19.256Z,39.78
2023-02-23T01:18:46.673Z,38.25
2023-02-23T01:21:22.914Z,32.67
2023-02-23T01:23:50.928Z,37.08
2023-02-23T01:26:22.657Z,31.33
2023-02-23T01:28:54.069Z,36.45
2023-02-23T01:31:21.945Z,31.20
2023-02-23T01:33:52.886Z,39.65
2023-02-23T01:36:19.479Z,35.15
2023-02-23T01:38:46.056Z,36.60
2023-02-23T01:41:13.190Z,31.65
2023-02-23T01:44:03.636Z,35.58
2023-02-23T01:46:39.290Z,35.97
2023-02-23T01:49:10.677Z,38.35
2023-02-23T01:51:49.289Z,34.25
2023-02-23T01:54:24.221Z,31.15
2023-02-23T01:56:58.348Z,38.75
2023-02-23T01:59:34.329Z,37.53
2023-02-23T02:02:01.058Z,40.58
2023-02-23T02:04:28.983Z,35.15
2023-02-23T02:06:56.891Z,40.38
2023-02-23T02:09:27.943Z,38.75
2023-02-23T02:11:54.436Z,38.65
2023-02-23T02:14:30.896Z,34.55
2023-02-23T02:17:37.430Z,34.28
2023-02-23T02:20:33.509Z,36.22
2023-02-23T02:23:41.356Z,26.38
2023-02-23T02:26:21.805Z,33.42
2023-02-23T02:29:31.590Z,33.90
2023-02-23T02:32:18.142Z,36.00
2023-02-23T02:35:10.918Z,30.50
2023-02-23T02:37:47.752Z,31.20
2023-02-23T02:40:25.180Z,34.90
2023-02-23T02:43:12.551Z,39.15
2023-02-23T02:45:51.741Z,34.38
2023-02-23T02:48:45.518Z,37.13
2023-02-23T02:51:28.490Z,41.78
2023-02-23T02:54:07.315Z,38.15
2023-02-23T02:56:40.637Z,34.80
2023-02-23T02:59:37.464Z,37.13
2023-02-23T03:02:26.058Z,36.33
2023-02-23T03:05:11.134Z,36.95
2023-02-23T03:08:07.351Z,36.33
2023-02-23T03:11:05.596Z,38.10
2023-02-23T03:14:24.166Z,36.20
2023-02-23T03:17:12.232Z,40.20
2023-02-23T03:20:17.697Z,38.97
2023-02-23T03:23:28.220Z,35.50
2023-02-23T03:26:23.313Z,39.15
2023-02-23T03:29:20.289Z,39.72
2023-02-23T03:32:12.215Z,38.47
2023-02-23T03:35:10.177Z,43.42
2023-02-23T03:38:09.133Z,37.83
2023-02-23T03:40:57.564Z,37.15
2023-02-23T03:43:50.044Z,39.58
2023-02-23T03:46:37.175Z,40.90
2023-02-23T03:49:26.989Z,39.30
2023-02-23T03:52:18.111Z,47.33
2023-02-23T03:55:08.627Z,43.00
2023-02-23T03:57:56.735Z,37.67
2023-02-23T04:00:48.826Z,39.65
2023-02-23T04:03:37.506Z,40.30
2023-02-23T04:06:27.242Z,50.25
2023-02-23T04:09:16.908Z,35.78
2023-02-23T04:12:10.991Z,39.85
2023-02-23T04:14:48.750Z,35.60
2023-02-23T04:17:16.679Z,40.95
2023-02-23T04:19:53.557Z,44.08
2023-02-23T04:22:20.928Z,44.60
2023-02-23T04:24:48.599Z,32.45
2023-02-23T04:27:15.813Z,37.35
2023-02-23T04:29:42.502Z,39.28
2023-02-23T04:32:18.439Z,40.90
2023-02-23T04:34:45.435Z,38.20
2023-02-23T04:37:13.053Z,42.38
2023-02-23T04:39:39.713Z,44.55
2023-02-23T04:42:06.257Z,40.15
2023-02-23T04:44:32.846Z,45.58
2023-02-23T04:46:59.333Z,45.80
2023-02-23T04:49:25.876Z,44.88
2023-02-23T04:51:52.443Z,44.78
2023-02-23T04:54:18.940Z,44.10
2023-02-23T04:56:45.419Z,39.83
2023-02-23T04:59:11.913Z,42.50
2023-02-23T05:01:38.669Z,40.60
2023-02-23T05:04:05.278Z,44.42
2023-02-23T05:06:33.191Z,31.10
2023-02-23T05:08:59.738Z,43.17
2023-02-23T05:11:27.861Z,48.22
2023-02-23T05:13:54.690Z,37.72
2023-02-23T05:16:21.625Z,44.33
2023-02-23T05:18:48.398Z,39.53
2023-02-23T05:21:14.892Z,41.72
2023-02-23T05:23:41.423Z,42.45
2023-02-23T05:26:11.055Z,40.33
2023-02-23T05:28:40.225Z,44.13
2023-02-23T05:31:07.022Z,42.60
2023-02-23T05:33:35.163Z,41.45
2023-02-23T05:36:05.364Z,43.72
2023-02-23T05:38:31.890Z,45.03
2023-02-23T05:40:58.385Z,45.13
2023-02-23T05:43:24.965Z,43.13
2023-02-23T05:45:51.460Z,42.45
2023-02-23T05:48:17.984Z,49.15
2023-02-23T05:50:44.467Z,51.05
2023-02-23T05:53:11.354Z,44.95
2023-02-23T05:55:37.829Z,47.45
2023-02-23T05:58:04.314Z,39.53
2023-02-23T06:00:30.884Z,41.28
2023-02-23T06:02:57.381Z,36.42
2023-02-23T06:05:23.866Z,40.35
2023-02-23T06:07:50.448Z,47.45
2023-02-23T06:10:17.357Z,44.42
2023-02-23T06:12:44.839Z,42.17
2023-02-23T06:15:11.588Z,48.38
2023-02-23T06:17:38.081Z,58.92
2023-02-23T06:20:07.179Z,47.58
2023-02-23T06:22:33.753Z,54.05
2023-02-23T06:25:00.289Z,51.28
2023-02-23T06:27:26.846Z,45.92
2023-02-23T06:29:53.832Z,49.70
2023-02-23T06:32:20.376Z,47.45
2023-02-23T06:34:46.885Z,50.13
2023-02-23T06:37:16.103Z,45.92
2023-02-23T06:39:42.629Z,49.72
2023-02-23T06:42:09.146Z,46.08
2023-02-23T06:44:35.806Z,54.50
2023-02-23T06:47:05.809Z,45.75
2023-02-23T06:49:32.493Z,54.45
2023-02-23T06:51:58.989Z,54.47
2023-02-23T06:54:26.543Z,50.42
2023-02-23T06:56:53.343Z,46.83
2023-02-23T06:59:19.949Z,50.35
2023-02-23T07:01:46.485Z,47.95
2023-02-23T07:04:15.545Z,60.00
2023-02-23T07:06:43.202Z,47.10
2023-02-23T07:09:09.828Z,54.28
2023-02-23T07:11:36.324Z,45.08
2023-02-23T07:14:02.840Z,39.42
2023-02-23T07:16:29.647Z,54.97
2023-02-23T07:18:56.434Z,45.90
2023-02-23T07:21:23.024Z,44.33
2023-02-23T07:23:50.134Z,52.60
2023-02-23T07:26:18.489Z,48.88
2023-02-23T07:28:45.026Z,44.03
2023-02-23T07:31:11.667Z,49.95
2023-02-23T07:33:38.319Z,42.58
2023-02-23T07:36:05.167Z,39.97
2023-02-23T07:38:31.646Z,25.75
2023-02-23T07:40:58.202Z,46.45
2023-02-23T07:43:24.770Z,43.53
2023-02-23T07:45:51.782Z,30.48
2023-02-23T07:48:19.204Z,37.15
2023-02-23T07:50:45.734Z,43.55
2023-02-23T07:53:12.766Z,40.05
2023-02-23T07:55:40.273Z,42.97
2023-02-23T07:58:07.976Z,40.60
2023-02-23T08:00:36.637Z,34.15
2023-02-23T08:03:03.223Z,46.97
2023-02-23T08:05:29.766Z,38.45
2023-02-23T08:07:57.976Z,41.08
2023-02-23T08:10:25.128Z,36.88
2023-02-23T08:12:51.638Z,27.02
2023-02-23T08:15:18.262Z,42.13
2023-02-23T08:17:44.905Z,32.38
2023-02-23T08:20:11.580Z,35.70
2023-02-23T08:22:48.766Z,38.10
2023-02-23T08:25:15.720Z,45.53
2023-02-23T08:27:42.499Z,31.95
2023-02-23T08:30:09.987Z,32.35
2023-02-23T08:32:36.563Z,35.22
2023-02-23T08:35:03.538Z,41.60
2023-02-23T08:37:30.227Z,38.75
2023-02-23T08:39:57.305Z,42.15
2023-02-23T08:42:23.786Z,39.47
2023-02-23T08:44:50.286Z,37.05
2023-02-23T08:47:21.937Z,25.85
2023-02-23T08:49:48.876Z,36.33
2023-02-23T08:52:15.643Z,41.50
2023-02-23T08:54:42.262Z,38.03
2023-02-23T08:57:10.254Z,36.17
2023-02-23T08:59:39.220Z,36.92
2023-02-23T09:02:07.613Z,31.48
2023-02-23T09:04:38.030Z,32.88
2023-02-23T09:07:05.042Z,33.75
2023-02-23T09:09:32.622Z,28.73
2023-02-23T09:12:00.072Z,38.33
2023-02-23T09:14:28.047Z,36.85
2023-02-23T09:16:54.518Z,32.60
2023-02-23T09:19:21.001Z,30.33
2023-02-23T09:21:47.481Z,38.78
2023-02-23T09:24:14.013Z,40.83
2023-02-23T09:26:43.523Z,32.20
2023-02-23T09:29:11.532Z,38.83
2023-02-23T09:31:39.085Z,38.28
2023-02-23T09:34:05.743Z,33.92
2023-02-23T09:36:32.379Z,29.25
2023-02-23T09:38:58.930Z,24.05
2023-02-23T09:41:25.377Z,30.63
2023-02-23T09:44:02.304Z,34.38
2023-02-23T09:46:40.420Z,37.00
2023-02-23T09:49:14.780Z,26.85
2023-02-23T09:51:48.411Z,35.63
2023-02-23T09:54:18.035Z,35.92
2023-02-23T09:56:47.733Z,34.67
2023-02-23T09:59:20.270Z,29.25
2023-02-23T10:01:49.827Z,33.08
2023-02-23T10:04:20.509Z,35.17
2023-02-23T10:07:07.096Z,37.03
2023-02-23T10:09:44.425Z,35.90
2023-02-23T10:12:25.483Z,33.67
2023-02-23T10:15:23.906Z,30.20
2023-02-23T10:18:46.422Z,31.48
2023-02-23T10:21:22.489Z,32.17
2023-02-23T10:23:56.641Z,35.88
2023-02-23T10:26:27.967Z,33.65
2023-02-23T10:28:58.202Z,38.50
2023-02-23T10:31:31.344Z,30.33
2023-02-23T10:34:03.998Z,31.38
2023-02-23T10:36:38.101Z,35.85
2023-02-23T10:39:07.433Z,35.75
2023-02-23T10:41:37.016Z,33.22
2023-02-23T10:44:16.474Z,31.85
2023-02-23T10:46:46.105Z,28.48
2023-02-23T10:49:22.620Z,33.13
2023-02-23T10:51:49.650Z,31.77
2023-02-23T10:54:38.817Z,32.95
2023-02-23T10:57:08.088Z,29.52
2023-02-23T10:59:35.090Z,25.45
2023-02-23T11:02:22.321Z,33.17
2023-02-23T11:04:57.501Z,34.33
2023-02-23T11:07:29.773Z,23.63
2023-02-23T11:09:58.059Z,26.52
2023-02-23T11:12:35.921Z,24.58
2023-02-23T11:15:39.349Z,33.53
2023-02-23T11:18:20.233Z,28.38
2023-02-23T11:20:48.506Z,31.75
2023-02-23T11:23:30.209Z,25.67
2023-02-23T11:26:07.519Z,21.23
2023-02-23T11:28:37.931Z,30.08
2023-02-23T11:31:14.741Z,29.13
2023-02-23T11:33:44.442Z,26.95
2023-02-23T11:36:27.846Z,34.10
2023-02-23T11:39:14.225Z,32.67
2023-02-23T11:41:40.775Z,25.92
2023-02-23T11:44:07.375Z,27.85
2023-02-23T11:46:38.308Z,26.70
2023-02-23T11:49:10.239Z,23.63
2023-02-23T11:51:40.692Z,32.92
2023-02-23T11:54:19.665Z,32.95
2023-02-23T11:56:55.140Z,28.15
2023-02-23T11:59:29.913Z,29.13
2023-02-23T12:02:04.899Z,27.17
2023-02-23T12:04:37.224Z,28.40
2023-02-23T12:07:26.630Z,22.48
2023-02-23T12:10:04.076Z,38.10
2023-02-23T12:12:40.109Z,35.22
2023-02-23T12:15:14.836Z,25.73
2023-02-23T12:17:51.154Z,28.00
2023-02-23T12:20:23.644Z,35.55
2023-02-23T12:22:59.574Z,27.75
2023-02-23T12:25:42.846Z,32.83
2023-02-23T12:28:20.291Z,27.85
2023-02-23T12:31:04.650Z,31.23
2023-02-23T12:33:47.136Z,33.50
2023-02-23T12:36:30.081Z,35.33
2023-02-23T12:39:04.777Z,30.13
2023-02-23T12:41:38.912Z,34.80
2023-02-23T12:44:37.712Z,24.92
2023-02-23T12:47:32.043Z,34.33
2023-02-23T12:50:07.442Z,23.48
2023-02-23T12:52:39.542Z,18.40
2023-02-23T12:55:11.652Z,30.45
2023-02-23T12:57:48.500Z,29.30
2023-02-23T13:00:39.624Z,20.75
2023-02-23T13:03:40.264Z,31.63
2023-02-23T13:06:25.536Z,33.22
2023-02-23T13:09:02.633Z,23.45
2023-02-23T13:11:54.001Z,29.10
2023-02-23T13:14:33.019Z,19.10
2023-02-23T13:17:32.052Z,31.02
2023-02-23T13:20:03.610Z,32.00
2023-02-23T13:22:40.692Z,33.00
2023-02-23T13:25:24.706Z,30.83
2023-02-23T13:27:55.526Z,21.17
2023-02-23T13:30:22.707Z,24.17
2023-02-23T13:32:49.821Z,29.92
2023-02-23T13:35:20.503Z,29.55
2023-02-23T13:38:19.764Z,35.78
2023-02-23T13:40:55.748Z,22.00
2023-02-23T13:44:01.558Z,28.02
2023-02-23T13:46:54.021Z,26.00
2023-02-23T13:49:36.610Z,29.35
2023-02-23T13:52:16.775Z,31.23
2023-02-23T13:54:57.470Z,32.67
2023-02-23T13:57:24.892Z,36.05
2023-02-23T13:59:52.456Z,31.58
2023-02-23T14:02:39.232Z,28.63
2023-02-23T14:05:27.889Z,29.00
2023-02-23T14:08:07.800Z,30.92
2023-02-23T14:10:41.190Z,29.27
2023-02-23T14:13:13.431Z,29.35
2023-02-23T14:15:53.617Z,29.27
2023-02-23T14:18:21.060Z,28.20
2023-02-23T14:21:05.409Z,21.67
2023-02-23T14:23:49.743Z,24.98
2023-02-23T14:26:28.403Z,26.75
2023-02-23T14:29:19.177Z,27.88
2023-02-23T14:32:00.839Z,24.90
2023-02-23T14:34:49.734Z,21.42
2023-02-23T14:37:39.940Z,32.78
2023-02-23T14:40:24.900Z,33.42
2023-02-23T14:42:57.111Z,15.18
2023-02-23T14:45:37.427Z,26.60
2023-02-23T14:48:13.532Z,24.65
2023-02-23T14:53:18.610Z,26.15
2023-02-23T14:55:45.723Z,21.80
2023-02-23T14:58:30.495Z,27.27
2023-02-23T15:00:57.121Z,28.20
2023-02-23T15:03:23.637Z,25.95
2023-02-23T15:05:58.535Z,26.80
2023-02-23T15:08:28.101Z,28.88
2023-02-23T15:11:04.535Z,22.23
2023-02-23T15:13:34.170Z,27.63
2023-02-23T15:16:16.137Z,27.48
2023-02-23T15:18:44.547Z,23.60
2023-02-23T15:21:13.969Z,15.27
2023-02-23T15:23:40.626Z,18.45
2023-02-23T15:26:32.096Z,30.42
2023-02-23T15:29:10.715Z,30.48
2023-02-23T15:31:41.213Z,20.58
2023-02-23T15:34:11.201Z,21.80
2023-02-23T15:36:41.389Z,22.30
2023-02-23T15:39:13.541Z,24.58
2023-02-23T15:41:42.690Z,22.23
2023-02-23T15:44:13.802Z,22.30
2023-02-23T15:46:42.584Z,15.18
2023-02-23T15:49:13.450Z,22.77
2023-02-23T15:51:48.835Z,29.83
2023-02-23T15:54:29.878Z,19.42
2023-02-23T15:57:02.235Z,27.67
2023-02-23T15:59:34.774Z,26.60
2023-02-23T16:02:03.121Z,32.75
2023-02-23T16:04:33.888Z,26.77
2023-02-23T16:07:28.332Z,28.85
2023-02-23T16:10:26.909Z,32.38
2023-02-23T16:12:54.778Z,32.05
2023-02-23T16:15:25.901Z,37.83
2023-02-23T16:17:58.368Z,24.42
2023-02-23T16:21:04.359Z,28.15
2023-02-23T16:23:35.618Z,17.67
2023-02-23T16:26:12.207Z,35.13
2023-02-23T16:28:44.246Z,33.10
2023-02-23T16:31:13.477Z,40.30
2023-02-23T16:33:54.552Z,38.38
2023-02-23T16:36:24.796Z,36.70
2023-02-23T16:39:00.562Z,37.08
2023-02-23T16:41:31.237Z,35.60
2023-02-23T16:44:03.598Z,37.92
2023-02-23T16:46:32.979Z,34.70
2023-02-23T16:49:10.334Z,33.22
2023-02-23T16:51:36.975Z,35.65
2023-02-23T16:54:04.138Z,25.17
2023-02-23T16:56:31.305Z,24.75
2023-02-23T16:59:01.679Z,31.50
2023-02-23T17:01:28.210Z,34.83
2023-02-23T17:03:55.007Z,34.50
2023-02-23T17:06:22.748Z,29.67
2023-02-23T17:08:57.478Z,22.02
2023-02-23T17:11:25.334Z,36.78
2023-02-23T17:13:51.866Z,28.55
2023-02-23T17:16:18.943Z,30.15
2023-02-23T17:18:45.774Z,24.23
2023-02-23T17:21:14.439Z,36.05
2023-02-23T17:23:53.609Z,39.20
2023-02-23T17:26:23.628Z,26.13
2023-02-23T17:28:50.996Z,43.03
2023-02-23T17:31:19.881Z,41.78
2023-02-23T17:33:47.445Z,47.65
2023-02-23T17:36:17.352Z,48.90
2023-02-23T17:38:44.930Z,43.47
2023-02-23T17:41:17.524Z,48.22
2023-02-23T17:43:44.282Z,39.25
2023-02-23T17:46:12.445Z,39.67
2023-02-23T17:48:40.865Z,48.80
2023-02-23T17:51:12.760Z,42.78
2023-02-23T17:53:40.207Z,46.60
2023-02-23T17:56:07.090Z,30.60
2023-02-23T17:58:33.720Z,52.85
2023-02-23T18:01:02.443Z,48.75
2023-02-23T18:03:32.079Z,46.45
2023-02-23T18:06:03.211Z,48.65
2023-02-23T18:08:30.112Z,24.80
2023-02-23T18:10:57.788Z,30.05
2023-02-23T18:13:25.952Z,52.45
2023-02-23T18:15:55.156Z,29.50
2023-02-23T18:18:24.200Z,53.50
2023-02-23T18:21:00.807Z,28.50
2023-02-23T18:23:32.761Z,26.65
2023-02-23T18:26:08.314Z,35.90
2023-02-23T18:28:35.693Z,58.30
2023-02-23T18:31:02.729Z,48.58
2023-02-23T18:33:29.532Z,59.13
2023-02-23T18:35:56.235Z,55.20
2023-02-23T18:38:23.064Z,57.58
2023-02-23T18:40:49.589Z,52.97
2023-02-23T18:43:16.214Z,57.72
2023-02-23T18:45:43.493Z,54.28
2023-02-23T18:48:13.492Z,63.97
2023-02-23T18:50:41.479Z,48.88
2023-02-23T18:53:11.093Z,42.08
2023-02-23T18:55:38.392Z,49.28
2023-02-23T18:58:05.885Z,30.98
2023-02-23T19:00:40.352Z,49.90
2023-02-23T19:03:07.589Z,54.42
2023-02-23T19:05:36.523Z,57.95
2023-02-23T19:08:04.309Z,61.95
2023-02-23T19:10:30.997Z,59.25
2023-02-23T19:12:57.701Z,58.17
2023-02-23T19:15:24.275Z,60.83
2023-02-23T19:17:50.926Z,62.03
2023-02-23T19:20:17.985Z,63.92
2023-02-23T19:22:45.738Z,59.97
2023-02-23T19:25:14.820Z,55.60
2023-02-23T19:27:43.060Z,57.53
2023-02-23T19:30:11.081Z,62.25
2023-02-23T19:32:40.028Z,53.90
2023-02-23T19:35:10.583Z,75.32
2023-02-23T19:37:40.705Z,63.22
2023-02-23T19:40:08.037Z,70.47
2023-02-23T19:42:35.306Z,67.57
2023-02-23T19:45:01.959Z,72.05
2023-02-23T19:47:28.483Z,69.85
2023-02-23T19:49:56.159Z,70.45
2023-02-23T19:52:24.792Z,76.82
2023-02-23T19:54:51.356Z,77.07
2023-02-23T19:57:17.895Z,69.70
2023-02-23T19:59:44.437Z,77.82
2023-02-23T20:02:11.439Z,131.75
2023-02-23T20:04:38.282Z,82.72
2023-02-23T20:07:04.849Z,92.32
2023-02-23T20:09:31.368Z,79.93
2023-02-23T20:11:57.889Z,75.38
2023-02-23T20:14:25.077Z,79.22
2023-02-23T20:16:51.616Z,69.78
2023-02-23T20:19:19.728Z,68.32
2023-02-23T20:21:46.340Z,77.28
2023-02-23T20:24:13.274Z,68.03
2023-02-23T20:26:39.880Z,63.10
2023-02-23T20:29:10.849Z,63.65
2023-02-23T20:31:41.791Z,67.88
2023-02-23T20:34:11.297Z,64.70
2023-02-23T20:36:38.049Z,61.65
2023-02-23T20:39:05.014Z,60.88
2023-02-23T20:41:31.752Z,63.20
2023-02-23T20:44:00.857Z,57.72
2023-02-23T20:46:31.722Z,53.20
2023-02-23T20:48:59.594Z,51.70
2023-02-23T20:51:26.660Z,52.35
2023-02-23T20:53:53.304Z,50.55
2023-02-23T20:56:23.550Z,43.45
2023-02-23T20:58:54.517Z,52.90
2023-02-23T21:01:27.255Z,48.38
2023-02-23T21:03:59.734Z,46.50
2023-02-23T21:06:28.231Z,53.53
2023-02-23T21:09:02.915Z,49.72
2023-02-23T21:11:32.131Z,46.70
2023-02-23T21:13:59.858Z,45.97
2023-02-23T21:16:26.806Z,53.20
2023-02-23T21:19:04.315Z,46.08
2023-02-23T21:21:52.530Z,45.38
2023-02-23T21:24:19.479Z,50.28
2023-02-23T21:26:46.104Z,50.55
2023-02-23T21:29:14.932Z,47.95
2023-02-23T21:31:43.489Z,53.13
2023-02-23T21:34:11.216Z,43.28
2023-02-23T21:36:37.997Z,49.25
2023-02-23T21:39:06.217Z,51.38
2023-02-23T21:41:33.798Z,45.25
2023-02-23T21:44:01.765Z,47.08
2023-02-23T21:46:28.717Z,47.22
2023-02-23T21:48:55.278Z,53.03
2023-02-23T21:51:22.167Z,47.20
2023-02-23T21:53:48.984Z,50.90
2023-02-23T21:56:21.282Z,45.83
2023-02-23T21:58:53.334Z,49.00
2023-02-23T22:01:34.750Z,45.95
2023-02-23T22:04:01.839Z,45.38
2023-02-23T22:06:38.972Z,56.42
2023-02-23T22:09:07.257Z,46.40
2023-02-23T22:11:35.791Z,47.55
2023-02-23T22:14:05.173Z,47.67
2023-02-23T22:16:35.858Z,44.45
2023-02-23T22:19:04.362Z,49.95
2023-02-23T22:21:41.941Z,54.78
2023-02-23T22:24:10.535Z,51.80
2023-02-23T22:26:39.520Z,48.42
2023-02-23T22:29:07.478Z,45.08
2023-02-23T22:31:34.320Z,51.22
2023-02-23T22:34:01.070Z,45.75
2023-02-23T22:36:27.834Z,50.78
2023-02-23T22:38:58.419Z,53.60
2023-02-23T22:41:25.052Z,48.47
2023-02-23T22:43:51.561Z,44.28
2023-02-23T22:46:18.091Z,42.97
2023-02-23T22:48:45.159Z,48.30
2023-02-23T22:51:13.510Z,45.90
2023-02-23T22:53:40.294Z,49.67
2023-02-23T22:56:07.071Z,50.95
2023-02-23T22:58:33.609Z,53.47
2023-02-23T23:01:06.479Z,54.17
2023-02-23T23:03:39.732Z,48.70
2023-02-23T23:06:11.480Z,49.10
2023-02-23T23:08:43.758Z,44.47
2023-02-23T23:11:13.043Z,51.85
2023-02-23T23:13:44.982Z,50.78
2023-02-23T23:16:28.880Z,54.17
2023-02-23T23:19:02.763Z,50.47
2023-02-23T23:21:31.970Z,50.33
2023-02-23T23:24:01.221Z,52.80
2023-02-23T23:26:28.624Z,52.88
2023-02-23T23:28:58.763Z,43.92
2023-02-23T23:31:29.226Z,57.95
2023-02-23T23:34:05.177Z,48.45
2023-02-23T23:36:34.735Z,44.30
2023-02-23T23:39:02.563Z,49.08
2023-02-23T23:41:35.442Z,51.75
2023-02-23T23:44:05.349Z,46.90
2023-02-23T23:46:35.546Z,48.55
2023-02-23T23:49:06.108Z,49.50
2023-02-23T23:51:39.105Z,49.08
2023-02-23T23:54:09.756Z,51.47
2023-02-23T23:56:39.762Z,53.28
2023-02-23T23:59:12.943Z,55.45
